Time;durP1;ratioP1;P1;durP2;ratioP2;P2;SDS_P1;SDS_P2;PMS_P1;PMS_P2;Temp;Humidity;BMP_temperature;BMP_pressure;BME280_temperature;BME280_humidity;BME280_pressure;Samples;Min_cycle;Max_cycle;Signal;HPM_P1;HPM_P2
2022/08/23 00:01:47;;;;;;;23.35;3.85;;;;;;;24.75;100.00;99313.27;1729748;82;20934;-77
2022/08/23 00:04:20;;;;;;;22.77;4.47;;;;;;;24.75;100.00;99313.87;1729409;83;21122;-73
2022/08/23 00:06:50;;;;;;;15.00;4.75;;;;;;;24.73;100.00;99315.70;1729479;83;20986;-77
2022/08/23 00:09:18;;;;;;;15.80;3.27;;;;;;;24.72;100.00;99312.68;1729468;83;20969;-77
2022/08/23 00:12:15;;;;;;;17.45;3.98;;;;;;;24.70;100.00;99315.75;1729331;83;21062;-73
2022/08/23 00:14:51;;;;;;;15.45;4.22;;;;;;;24.71;100.00;99315.92;1728934;82;21017;-75
2022/08/23 00:17:19;;;;;;;13.65;3.90;;;;;;;24.70;100.00;99321.38;1729426;83;22028;-76
2022/08/23 00:19:46;;;;;;;20.92;4.47;;;;;;;24.65;100.00;99319.20;1729407;83;20910;-74
2022/08/23 00:22:14;;;;;;;9.65;3.90;;;;;;;24.68;100.00;99328.84;1729451;82;20913;-77
2022/08/23 00:24:43;;;;;;;14.60;3.65;;;;;;;24.65;100.00;99324.84;1729310;81;20839;-74
2022/08/23 00:27:13;;;;;;;13.65;4.17;;;;;;;24.64;100.00;99318.22;1729478;83;21584;-78
2022/08/23 00:29:49;;;;;;;20.08;4.80;;;;;;;24.62;100.00;99319.25;1729724;82;21686;-75
2022/08/23 00:32:23;;;;;;;14.73;3.70;;;;;;;24.60;100.00;99323.13;1709057;83;21053;-77
2022/08/23 00:34:53;;;;;;;14.63;4.15;;;;;;;24.55;100.00;99324.36;1726242;83;20870;-78
2022/08/23 00:37:21;;;;;;;18.95;3.80;;;;;;;24.56;100.00;99327.38;1735059;82;20992;-76
2022/08/23 00:39:49;;;;;;;18.00;4.45;;;;;;;24.54;100.00;99317.95;1742833;82;21011;-72
2022/08/23 00:48:36;;;;;;;10.45;3.30;;;;;;;24.50;100.00;99336.89;1742876;82;21017;-74
2022/08/23 00:51:20;;;;;;;9.10;3.75;;;;;;;24.48;100.00;99333.70;1743061;82;20973;-78
2022/08/23 00:54:03;;;;;;;14.90;3.92;;;;;;;24.47;100.00;99331.30;1766193;81;20983;-77
2022/08/23 00:56:38;;;;;;;22.25;4.20;;;;;;;24.47;100.00;99336.94;1772499;81;21993;-72
2022/08/23 00:59:15;;;;;;;12.78;3.30;;;;;;;24.46;100.00;99336.16;1772072;80;20981;-72
2022/08/23 01:01:50;;;;;;;29.95;3.98;;;;;;;24.44;100.00;99332.95;1763677;81;20956;-72
2022/08/23 01:04:17;;;;;;;9.63;3.55;;;;;;;24.43;100.00;99334.97;1773591;81;21010;-76
2022/08/23 01:06:49;;;;;;;13.80;3.65;;;;;;;24.44;100.00;99331.55;1773736;81;20965;-71
2022/08/23 01:09:19;;;;;;;15.48;3.70;;;;;;;24.43;100.00;99333.56;1747365;81;20957;-78
2022/08/23 01:12:08;;;;;;;10.93;3.27;;;;;;;24.42;100.00;99331.16;1773333;81;20956;-74
2022/08/23 01:14:53;;;;;;;16.70;3.87;;;;;;;24.41;100.00;99340.21;1773629;81;20996;-79
2022/08/23 01:17:36;;;;;;;10.82;3.20;;;;;;;24.41;100.00;99333.17;1773219;80;21037;-76
2022/08/23 01:20:10;;;;;;;14.58;3.52;;;;;;;24.38;100.00;99333.23;1773621;80;21544;-75
2022/08/23 01:23:08;;;;;;;17.10;3.80;;;;;;;24.37;100.00;99332.44;1773339;80;21042;-77
2022/08/23 01:25:35;;;;;;;17.95;4.03;;;;;;;24.34;100.00;99336.09;1753782;81;20996;-75
2022/08/23 01:28:02;;;;;;;12.80;3.58;;;;;;;24.34;100.00;99333.27;1753990;81;20950;-78
2022/08/23 01:30:31;;;;;;;7.50;3.10;;;;;;;24.33;100.00;99334.48;1754153;81;21020;-72
2022/08/23 01:33:01;;;;;;;19.23;4.05;;;;;;;24.36;100.00;99339.27;1773661;80;20906;-78
2022/08/23 01:35:41;;;;;;;17.80;3.67;;;;;;;24.36;100.00;99337.86;1754274;81;21199;-79
2022/08/23 01:38:17;;;;;;;15.18;3.70;;;;;;;24.38;100.00;99337.46;1765395;80;20867;-75
2022/08/23 01:40:45;;;;;;;13.72;3.15;;;;;;;24.38;100.00;99341.69;1759831;81;20996;-76
2022/08/23 01:43:14;;;;;;;14.80;4.20;;;;;;;24.38;100.00;99345.91;1738381;81;20957;-74
2022/08/23 01:45:41;;;;;;;15.75;3.33;;;;;;;24.37;100.00;99347.91;1759837;80;20926;-77
2022/08/23 01:48:09;;;;;;;15.72;4.03;;;;;;;24.37;100.00;99350.73;1759662;81;22139;-80
2022/08/23 01:50:40;;;;;;;20.35;4.60;;;;;;;24.36;100.00;99349.11;1759470;81;21491;-77
2022/08/23 01:53:07;;;;;;;9.28;3.20;;;;;;;24.35;100.00;99348.94;1759577;80;20906;-73
2022/08/23 01:55:34;;;;;;;13.48;3.75;;;;;;;24.33;100.00;99345.73;1759505;81;20922;-76
2022/08/23 01:58:09;;;;;;;14.67;3.10;;;;;;;24.32;100.00;99345.55;1756543;81;20913;-77
2022/08/23 02:00:41;;;;;;;11.53;3.37;;;;;;;24.32;100.00;99345.55;1759641;81;21412;-76
2022/08/23 02:03:13;;;;;;;21.60;3.55;;;;;;;24.34;100.00;99346.55;1759524;81;20823;-75
2022/08/23 02:05:52;;;;;;;16.32;4.35;;;;;;;24.33;100.00;99340.73;1755610;81;20862;-76
2022/08/23 02:11:10;;;;;;;13.22;3.65;;;;;;;24.31;100.00;99344.75;1759674;81;20990;-75
2022/08/23 02:13:39;;;;;;;13.80;3.67;;;;;;;24.30;100.00;99350.80;1759461;81;21150;-78
2022/08/23 02:16:06;;;;;;;11.25;3.85;;;;;;;24.32;100.00;99351.19;1738191;81;20990;-78
2022/08/23 02:18:33;;;;;;;18.02;3.90;;;;;;;24.38;100.00;99352.94;1759709;81;20894;-73
2022/08/23 02:21:02;;;;;;;18.00;4.25;;;;;;;24.36;100.00;99350.52;1759488;81;20886;-78
2022/08/23 02:23:36;;;;;;;15.70;4.05;;;;;;;24.34;100.00;99352.17;1734901;81;21470;-78
2022/08/23 02:26:05;;;;;;;15.48;4.50;;;;;;;24.33;100.00;99354.81;1759672;81;21353;-75
2022/08/23 02:28:32;;;;;;;17.48;4.15;;;;;;;24.31;100.00;99355.20;1759497;81;20886;-76
2022/08/23 02:31:00;;;;;;;12.78;3.30;;;;;;;24.29;100.00;99349.22;1759981;81;20914;-77
2022/08/23 02:33:43;;;;;;;13.22;3.67;;;;;;;24.28;100.00;99345.59;1759611;81;21493;-72
2022/08/23 02:36:13;;;;;;;15.25;3.77;;;;;;;24.25;100.00;99351.26;1759604;81;21426;-75
2022/08/23 02:38:40;;;;;;;20.60;3.70;;;;;;;24.22;100.00;99357.12;1768756;80;21750;-77
2022/08/23 02:41:08;;;;;;;22.70;3.70;;;;;;;24.20;100.00;99359.55;1773272;81;20965;-74
2022/08/23 02:43:39;;;;;;;15.15;3.47;;;;;;;24.21;100.00;99363.95;1767163;81;21477;-71
2022/08/23 02:46:07;;;;;;;15.55;4.12;;;;;;;24.17;100.00;99361.80;1772721;80;21500;-77
2022/08/23 02:48:35;;;;;;;12.85;3.72;;;;;;;24.14;100.00;99362.61;1773408;81;20953;-77
2022/08/23 02:51:06;;;;;;;16.45;3.83;;;;;;;24.11;100.00;99366.23;1773452;81;21235;-76
2022/08/23 02:53:33;;;;;;;13.60;3.72;;;;;;;24.09;100.00;99367.28;1773530;81;21031;-79
2022/08/23 02:56:01;;;;;;;9.08;3.37;;;;;;;24.12;100.00;99368.63;1773446;81;20941;-76
2022/08/23 02:58:28;;;;;;;13.30;3.60;;;;;;;24.12;100.00;99371.44;1773405;81;20878;-78
2022/08/23 03:00:56;;;;;;;22.02;3.67;;;;;;;24.09;100.00;99374.31;1773750;81;21702;-77
2022/08/23 03:03:23;;;;;;;26.55;3.37;;;;;;;24.06;100.00;99379.56;1773687;81;21757;-76
2022/08/23 03:05:56;;;;;;;13.22;3.98;;;;;;;24.06;100.00;99375.94;1773405;81;21356;-74
2022/08/23 03:08:23;;;;;;;17.65;3.98;;;;;;;24.03;100.00;99381.80;1773773;81;20984;-78
2022/08/23 03:10:51;;;;;;;18.12;3.95;;;;;;;24.04;100.00;99382.58;1773821;81;20901;-78
2022/08/23 03:13:31;;;;;;;18.77;3.87;;;;;;;23.98;100.00;99381.44;1767645;81;20870;-78
2022/08/23 03:15:59;;;;;;;25.92;3.60;;;;;;;23.98;100.00;99387.07;1773489;81;21210;-77
2022/08/23 03:18:38;;;;;;;17.87;4.00;;;;;;;23.99;100.00;99390.06;1770361;81;20949;-76
2022/08/23 03:21:07;;;;;;;14.20;3.17;;;;;;;23.99;100.00;99392.27;1772702;80;21478;-77
2022/08/23 03:23:39;;;;;;;17.37;3.62;;;;;;;23.98;100.00;99395.51;1751478;81;20974;-79
2022/08/23 03:26:10;;;;;;;10.88;2.87;;;;;;;23.99;100.00;99395.09;1773561;81;20953;-77
2022/08/23 03:28:40;;;;;;;8.98;2.90;;;;;;;24.00;100.00;99393.08;1773796;81;21088;-78
2022/08/23 03:31:11;;;;;;;13.25;3.50;;;;;;;24.00;100.00;99388.86;1773394;81;21497;-77
2022/08/23 03:33:39;;;;;;;17.15;4.83;;;;;;;24.01;100.00;99394.67;1772660;80;20942;-80
2022/08/23 03:36:08;;;;;;;11.12;3.77;;;;;;;24.00;100.00;99391.08;1773566;81;20913;-76
2022/08/23 03:38:38;;;;;;;16.80;3.27;;;;;;;24.02;100.00;99399.87;1773206;80;20905;-75
2022/08/23 03:41:14;;;;;;;14.58;3.35;;;;;;;24.01;100.00;99396.89;1730823;82;21005;-78
2022/08/23 03:43:44;;;;;;;18.82;3.70;;;;;;;23.99;100.00;99397.91;1720991;82;20960;-78
2022/08/23 03:46:21;;;;;;;8.65;3.15;;;;;;;23.98;100.00;99393.50;1700618;83;20963;-79
2022/08/23 03:48:41;;;;;;;11.50;3.90;;;;;;;23.99;100.00;99402.72;1699433;83;20956;-76
2022/08/23 03:51:10;;;;;;;10.32;3.33;;;;;;;24.03;100.00;99408.53;1721280;83;21056;-78
2022/08/23 03:53:39;;;;;;;20.23;3.52;;;;;;;24.06;100.00;99411.10;1721339;83;21076;-78
2022/08/23 03:56:06;;;;;;;14.85;3.42;;;;;;;24.07;100.00;99413.50;1721257;82;20964;-74
2022/08/23 03:58:36;;;;;;;20.32;4.33;;;;;;;24.11;100.00;99421.91;1721577;83;20969;-78
2022/08/23 04:01:04;;;;;;;19.85;3.40;;;;;;;24.14;100.00;99425.92;1717995;83;20909;-77
2022/08/23 04:03:32;;;;;;;17.42;3.72;;;;;;;24.16;100.00;99431.91;1721131;83;21459;-78
2022/08/23 04:06:04;;;;;;;14.33;3.65;;;;;;;24.17;100.00;99429.34;1721186;83;21234;-79
2022/08/23 04:08:31;;;;;;;19.90;4.45;;;;;;;24.19;100.00;99436.76;1721021;83;21024;-75
2022/08/23 04:10:58;;;;;;;10.75;3.22;;;;;;;24.22;100.00;99431.70;1721523;83;21060;-78
2022/08/23 04:13:28;;;;;;;15.53;3.85;;;;;;;24.23;100.00;99433.28;1700566;83;21028;-77
2022/08/23 04:16:04;;;;;;;14.58;4.42;;;;;;;24.25;100.00;99436.49;1703395;83;20992;-77
2022/08/23 04:18:32;;;;;;;13.50;3.50;;;;;;;24.27;100.00;99438.28;1720824;83;21608;-79
2022/08/23 04:21:02;;;;;;;21.40;3.83;;;;;;;24.29;100.00;99437.23;1700708;83;21000;-75
2022/08/23 04:23:30;;;;;;;15.20;4.42;;;;;;;24.32;100.00;99438.44;1700350;83;21134;-78
2022/08/23 04:25:56;;;;;;;33.88;5.30;;;;;;;24.31;100.00;99441.84;1721068;83;21016;-76
2022/08/23 04:28:24;;;;;;;22.52;4.58;;;;;;;24.34;100.00;99445.05;1721374;83;21561;-77
2022/08/23 04:30:52;;;;;;;25.02;4.08;;;;;;;24.39;100.00;99444.60;1721122;83;21010;-74
2022/08/23 04:33:19;;;;;;;13.55;3.72;;;;;;;24.42;100.00;99446.58;1721410;83;20983;-79
2022/08/23 04:35:46;;;;;;;28.23;4.53;;;;;;;24.43;100.00;99448.97;1700557;83;20972;-74
2022/08/23 04:38:17;;;;;;;24.65;4.28;;;;;;;24.50;99.66;99446.69;1712812;83;21028;-77
2022/08/23 04:43:34;;;;;;;21.02;4.80;;;;;;;24.61;100.00;99447.19;1684685;84;21370;-75
2022/08/23 04:46:05;;;;;;;28.35;4.37;;;;;;;24.67;100.00;99446.31;1702736;84;21085;-77
2022/08/23 04:48:37;;;;;;;21.87;5.00;;;;;;;24.74;98.95;99446.84;1720355;83;20996;-78
2022/08/23 04:51:05;;;;;;;22.73;4.05;;;;;;;24.80;97.91;99452.82;1721057;83;20912;-78
2022/08/23 04:53:34;;;;;;;14.63;4.45;;;;;;;24.83;98.87;99450.56;1702900;84;21013;-79
2022/08/23 04:56:03;;;;;;;20.08;3.85;;;;;;;24.86;98.36;99448.31;1698259;84;21195;-75
2022/08/23 04:58:31;;;;;;;18.42;4.00;;;;;;;24.92;97.89;99457.91;1702745;84;21457;-78
2022/08/23 05:01:02;;;;;;;23.70;4.25;;;;;;;24.91;97.88;99460.55;1702733;84;21072;-78
2022/08/23 05:03:30;;;;;;;21.70;4.20;;;;;;;24.95;97.53;99460.52;1702820;84;21017;-78
2022/08/23 05:05:58;;;;;;;23.05;4.33;;;;;;;24.95;97.77;99461.92;1702719;84;21023;-74
2022/08/23 05:08:36;;;;;;;19.57;4.78;;;;;;;24.99;98.24;99462.66;1691501;84;20985;-76
2022/08/23 05:11:08;;;;;;;22.75;4.10;;;;;;;25.00;98.45;99462.88;1703063;84;20969;-77
2022/08/23 05:13:39;;;;;;;19.85;4.92;;;;;;;25.00;98.00;99460.05;1697174;83;21055;-78
2022/08/23 05:16:19;;;;;;;19.20;5.12;;;;;;;25.05;96.54;99464.41;1720935;83;20932;-74
2022/08/23 05:18:48;;;;;;;27.70;5.10;;;;;;;25.04;96.70;99474.87;1702147;84;21060;-76
2022/08/23 05:21:20;;;;;;;33.20;5.35;;;;;;;25.10;96.70;99473.00;1702627;83;21046;-76
2022/08/23 05:23:47;;;;;;;25.97;5.53;;;;;;;25.14;96.06;99475.19;1681179;84;21053;-75
2022/08/23 05:26:15;;;;;;;28.57;4.97;;;;;;;25.15;96.35;99472.55;1720690;82;21011;-75
2022/08/23 05:28:46;;;;;;;37.45;6.35;;;;;;;25.14;95.39;99475.98;1700867;83;21041;-73
2022/08/23 05:31:22;;;;;;;37.17;5.53;;;;;;;25.11;95.51;99485.27;1702919;84;20937;-75
2022/08/23 05:33:57;;;;;;;26.15;4.80;;;;;;;25.15;95.44;99476.77;1707444;83;21064;-75
2022/08/23 05:36:27;;;;;;;30.00;4.40;;;;;;;25.20;95.91;99486.80;1706282;83;20989;-75
2022/08/23 05:38:53;;;;;;;32.55;6.70;;;;;;;25.21;96.30;99483.55;1707555;83;21009;-77
2022/08/23 05:41:20;;;;;;;17.57;5.30;;;;;;;25.25;97.25;99484.29;1723243;83;20999;-75
2022/08/23 05:43:47;;;;;;;33.92;5.72;;;;;;;25.29;98.07;99484.25;1712968;83;21080;-77
2022/08/23 05:46:18;;;;;;;34.43;6.22;;;;;;;25.33;97.42;99483.60;1712676;83;21105;-77
2022/08/23 05:48:49;;;;;;;29.00;6.58;;;;;;;25.37;97.60;99490.58;1723347;82;20961;-74
2022/08/23 05:51:30;;;;;;;26.05;5.62;;;;;;;25.43;97.41;99495.95;1713066;83;21064;-77
2022/08/23 05:54:04;;;;;;;27.65;5.25;;;;;;;25.49;98.41;99497.06;1707295;83;21017;-75
2022/08/23 05:56:35;;;;;;;51.33;6.90;;;;;;;25.55;98.15;99500.83;1712918;83;21000;-76
2022/08/23 05:59:05;;;;;;;49.33;7.37;;;;;;;25.61;95.88;99504.75;1712570;83;21082;-72
2022/08/23 06:01:37;;;;;;;28.47;5.87;;;;;;;25.63;96.46;99503.73;1712903;83;21458;-76
2022/08/23 06:04:11;;;;;;;48.80;6.00;;;;;;;25.67;94.99;99510.16;1708848;83;21077;-72
2022/08/23 06:06:43;;;;;;;40.38;6.28;;;;;;;25.73;96.03;99507.03;1696426;83;21430;-76
2022/08/23 06:09:13;;;;;;;43.58;6.55;;;;;;;25.80;95.90;99518.02;1723330;83;20989;-76
2022/08/23 06:11:44;;;;;;;35.78;6.78;;;;;;;25.85;95.45;99517.54;1712955;83;21415;-76
2022/08/23 06:14:14;;;;;;;37.55;6.90;;;;;;;25.91;96.46;99525.73;1684090;83;21044;-72
2022/08/23 06:16:45;;;;;;;48.50;6.85;;;;;;;25.96;94.32;99525.25;1712683;83;20937;-80
2022/08/23 06:19:13;;;;;;;30.88;6.83;;;;;;;26.04;93.40;99529.35;1712650;83;21036;-77
2022/08/23 06:21:54;;;;;;;43.52;6.65;;;;;;;26.04;93.82;99528.75;1703021;83;21001;-76
2022/08/23 06:24:26;;;;;;;40.50;6.53;;;;;;;26.08;94.28;99537.16;1722797;83;21145;-73
2022/08/23 06:26:55;;;;;;;55.23;6.90;;;;;;;26.13;93.20;99529.02;1694041;84;21032;-78
2022/08/23 06:29:25;;;;;;;39.55;6.92;;;;;;;26.18;93.53;99540.43;1712652;83;20937;-71
2022/08/23 06:31:53;;;;;;;38.35;6.83;;;;;;;26.23;93.72;99541.36;1706746;84;21040;-78
2022/08/23 06:34:32;;;;;;;52.85;7.90;;;;;;;26.27;93.99;99550.38;1709486;83;20953;-75
2022/08/23 06:37:11;;;;;;;61.00;7.53;;;;;;;26.31;93.77;99547.67;1704150;83;21160;-79
2022/08/23 06:39:57;;;;;;;50.73;6.80;;;;;;;26.37;92.88;99552.26;1723102;82;20996;-76
2022/08/23 06:42:30;;;;;;;47.45;8.40;;;;;;;26.45;91.95;99555.75;1703586;83;20905;-78
2022/08/23 06:45:05;;;;;;;49.13;8.55;;;;;;;26.53;91.63;99555.03;1707071;83;21033;-79
2022/08/23 06:47:39;;;;;;;47.80;9.63;;;;;;;26.56;90.69;99554.16;1723342;83;21000;-77
2022/08/23 06:50:08;;;;;;;35.40;7.58;;;;;;;26.61;91.06;99559.32;1712587;83;22060;-71
2022/08/23 06:52:56;;;;;;;48.83;7.30;;;;;;;26.68;91.09;99561.22;1712670;83;20960;-74
2022/08/23 06:55:29;;;;;;;61.88;8.18;;;;;;;26.74;90.66;99560.91;1675184;84;20980;-73
2022/08/23 06:58:03;;;;;;;57.10;7.80;;;;;;;26.80;91.83;99573.29;1712336;83;20933;-74
2022/08/23 07:00:48;;;;;;;56.00;8.23;;;;;;;26.91;89.92;99566.65;1720328;83;21043;-73
2022/08/23 07:03:22;;;;;;;69.40;8.38;;;;;;;26.95;91.01;99565.38;1705436;83;21226;-73
2022/08/23 07:06:10;;;;;;;53.48;10.70;;;;;;;27.00;90.35;99571.13;1707161;83;20917;-79
2022/08/23 07:08:41;;;;;;;70.28;9.75;;;;;;;27.09;91.03;99570.59;1712416;83;21462;-77
2022/08/23 07:11:07;;;;;;;65.35;10.58;;;;;;;27.17;90.23;99567.00;1682691;83;21017;-73
2022/08/23 07:13:37;;;;;;;62.40;9.58;;;;;;;27.22;90.19;99573.56;1712537;83;20965;-78
2022/08/23 07:16:06;;;;;;;62.48;9.65;;;;;;;27.29;91.05;99579.69;1712543;83;21031;-73
2022/08/23 07:18:33;;;;;;;73.17;10.20;;;;;;;27.39;90.86;99578.68;1712624;83;20946;-78
2022/08/23 07:21:04;;;;;;;71.20;10.58;;;;;;;27.50;88.72;99582.69;1712554;83;21533;-71
2022/08/23 07:23:36;;;;;;;64.70;9.25;;;;;;;27.52;87.90;99584.47;1707848;83;20961;-74
2022/08/23 07:26:08;;;;;;;66.47;12.58;;;;;;;27.52;86.29;99587.30;1709687;83;21013;-77
2022/08/23 07:28:37;;;;;;;74.22;10.58;;;;;;;27.58;87.18;99596.08;1723133;83;21376;-76
2022/08/23 07:31:17;;;;;;;57.38;9.23;;;;;;;27.61;85.42;99589.54;1693424;84;21009;-77
2022/08/23 07:33:54;;;;;;;54.38;8.65;;;;;;;27.64;86.11;99590.69;1706087;83;20897;-77
2022/08/23 07:36:25;;;;;;;94.72;12.55;;;;;;;27.71;87.00;99591.98;1712685;83;20937;-80
2022/08/23 07:38:52;;;;;;;71.67;9.63;;;;;;;27.76;86.08;99596.32;1713850;82;20917;-80
2022/08/23 07:41:28;;;;;;;73.75;10.48;;;;;;;27.85;86.98;99594.31;1733660;82;21548;-76
2022/08/23 07:43:57;;;;;;;;;;;;;;;27.94;87.21;99587.45;1736394;82;21539;-73
2022/08/23 07:46:24;;;;;;;66.10;11.33;;;;;;;28.03;88.38;99588.27;1733713;82;20204;-77
2022/08/23 07:48:52;;;;;;;95.67;11.50;;;;;;;28.12;86.03;99594.72;1733942;82;20976;-76
2022/08/23 07:51:20;;;;;;;73.07;12.50;;;;;;;28.23;86.00;99590.23;1734037;82;21540;-75
2022/08/23 07:53:53;;;;;;;53.40;8.83;;;;;;;28.30;86.90;99584.41;1704941;82;21020;-77
2022/08/23 07:56:20;;;;;;;67.20;10.03;;;;;;;28.39;87.04;99592.29;1734029;82;20944;-77
2022/08/23 07:58:55;;;;;;;76.72;10.10;;;;;;;28.47;84.04;99604.25;1733435;82;21082;-79
2022/08/23 08:01:35;;;;;;;88.40;11.43;;;;;;;28.52;83.81;99597.45;1733630;82;21510;-78
2022/08/23 08:04:04;;;;;;;77.70;11.08;;;;;;;28.58;84.01;99601.94;1733977;82;20964;-74
2022/08/23 08:06:46;;;;;;;85.92;10.68;;;;;;;28.63;81.94;99595.74;1733851;82;21709;-72
2022/08/23 08:09:14;;;;;;;65.45;10.45;;;;;;;28.67;83.78;99592.82;1733484;82;21030;-76
2022/08/23 08:11:47;;;;;;;88.78;11.12;;;;;;;28.74;85.43;99600.34;1733828;82;21430;-78
2022/08/23 08:14:27;;;;;;;65.45;11.75;;;;;;;28.82;83.08;99601.74;1683499;82;20991;-72
2022/08/23 08:16:59;;;;;;;78.37;12.00;;;;;;;28.89;82.23;99597.31;1732466;82;20991;-76
2022/08/23 08:19:45;;;;;;;77.40;11.75;;;;;;;28.92;81.40;99598.45;1638685;87;20952;-78
2022/08/23 08:22:19;;;;;;;69.60;11.83;;;;;;;28.98;82.66;99596.70;1638732;87;21143;-73
2022/08/23 08:25:01;;;;;;;99.20;11.85;;;;;;;29.02;81.96;99605.89;1723711;82;20952;-77
2022/08/23 08:27:28;;;;;;;82.17;10.93;;;;;;;29.09;82.39;99600.66;1733838;82;20908;-77
2022/08/23 08:29:55;;;;;;;98.30;12.73;;;;;;;29.18;83.38;99601.43;1733805;82;21062;-74
2022/08/23 08:32:21;;;;;;;95.12;12.50;;;;;;;29.30;82.25;99599.88;1733780;82;21073;-77
2022/08/23 08:34:56;;;;;;;73.12;13.22;;;;;;;29.39;81.31;99605.69;1733230;82;20943;-73
2022/08/23 08:37:22;;;;;;;71.35;11.25;;;;;;;29.45;78.87;99605.14;1731848;82;21009;-76
2022/08/23 08:39:52;;;;;;;95.77;12.85;;;;;;;29.56;81.27;99599.16;1718978;82;20985;-75
2022/08/23 08:42:45;;;;;;;82.50;11.85;;;;;;;29.68;84.14;99605.53;1702841;84;21550;-78
2022/08/23 08:45:33;;;;;;;79.87;12.43;;;;;;;29.83;84.23;99600.20;1698935;84;21090;-78
2022/08/23 08:48:13;;;;;;;60.78;11.30;;;;;;;30.01;81.84;99606.74;1698819;84;21005;-78
2022/08/23 08:50:46;;;;;;;65.08;10.53;;;;;;;30.06;82.41;99609.63;1702715;84;21513;-72
2022/08/23 08:53:31;;;;;;;77.42;10.15;;;;;;;30.15;78.88;99606.73;1702212;84;21051;-71
2022/08/23 08:56:34;;;;;;;76.57;11.05;;;;;;;30.10;79.15;99618.84;1702750;84;21001;-74
2022/08/23 08:59:10;;;;;;;73.35;10.53;;;;;;;30.06;78.82;99612.47;1702378;84;21218;-73
2022/08/23 09:01:38;;;;;;;67.67;9.78;;;;;;;30.02;76.21;99624.59;1702616;84;21150;-79
2022/08/23 09:04:06;;;;;;;87.00;11.60;;;;;;;30.03;78.42;99620.48;1702821;84;21053;-72
2022/08/23 09:07:16;;;;;;;70.28;11.08;;;;;;;30.08;79.99;99624.18;1702676;83;20953;-78
2022/08/23 09:10:16;;;;;;;95.55;11.55;;;;;;;30.20;79.13;99624.62;1671981;83;21565;-74
2022/08/23 09:13:04;;;;;;;75.60;10.35;;;;;;;30.24;75.78;99628.19;1701270;84;20917;-77
2022/08/23 09:16:03;;;;;;;70.40;11.15;;;;;;;30.21;71.89;99622.78;1699121;84;21418;-75
2022/08/23 09:18:35;;;;;;;79.60;11.73;;;;;;;30.19;73.33;99628.11;1702616;84;20933;-74
2022/08/23 09:21:05;;;;;;;81.60;11.80;;;;;;;30.26;71.97;99629.95;1702876;84;20910;-78
2022/08/23 09:23:40;;;;;;;72.90;9.78;;;;;;;30.37;71.87;99634.66;1702658;83;20958;-79
2022/08/23 09:26:29;;;;;;;67.05;8.90;;;;;;;30.52;72.56;99635.60;1700670;83;21121;-81
2022/08/23 09:29:28;;;;;;;70.45;10.43;;;;;;;30.61;70.57;99630.66;1699356;84;21453;-78
2022/08/23 09:32:01;;;;;;;49.80;8.28;;;;;;;30.67;71.00;99633.10;1702850;84;20898;-78
2022/08/23 09:34:44;;;;;;;63.52;8.83;;;;;;;30.62;65.02;99626.58;1700555;83;20933;-77
2022/08/23 09:37:22;;;;;;;61.73;9.00;;;;;;;30.56;62.67;99632.03;1692081;84;21067;-77
2022/08/23 09:40:14;;;;;;;70.00;9.35;;;;;;;30.57;64.70;99636.45;1699214;83;20902;-79
2022/08/23 09:42:41;;;;;;;57.75;9.35;;;;;;;30.62;63.35;99632.26;1687467;84;21001;-79
2022/08/23 09:45:30;;;;;;;49.40;10.00;;;;;;;30.68;62.35;99629.62;1722798;83;20921;-75
2022/08/23 09:48:10;;;;;;;55.40;10.35;;;;;;;30.79;64.44;99627.22;1694194;84;20921;-77
2022/08/23 09:50:46;;;;;;;70.97;8.08;;;;;;;30.97;69.37;99629.47;1712159;83;21450;-77
2022/08/23 09:53:16;;;;;;;67.05;7.62;;;;;;;31.13;62.96;99623.45;1712706;83;21189;-77
2022/08/23 09:55:55;;;;;;;52.35;8.30;;;;;;;31.26;63.52;99627.64;1712649;83;21009;-76
2022/08/23 09:58:35;;;;;;;46.98;6.30;;;;;;;31.41;60.22;99631.41;1712734;83;20953;-75
2022/08/23 10:01:23;;;;;;;50.10;7.25;;;;;;;31.41;55.62;99627.14;1702823;83;20878;-77
2022/08/23 10:04:25;;;;;;;41.28;7.45;;;;;;;31.44;55.73;99635.55;1690934;84;21477;-70
2022/08/23 10:06:54;;;;;;;36.90;6.03;;;;;;;31.50;53.68;99624.38;1712330;83;21877;-73
2022/08/23 10:09:33;;;;;;;36.95;4.37;;;;;;;31.54;50.59;99637.85;1719822;82;20978;-75
2022/08/23 10:12:04;;;;;;;35.00;5.03;;;;;;;31.58;51.84;99632.80;1712621;83;20940;-74
2022/08/23 10:14:34;;;;;;;35.03;6.22;;;;;;;31.68;52.63;99630.03;1712639;83;20988;-74
2022/08/23 10:17:24;;;;;;;33.25;5.53;;;;;;;31.82;53.13;99639.44;1712591;83;20929;-78
2022/08/23 10:20:34;;;;;;;27.65;4.72;;;;;;;31.85;50.45;99629.80;1688223;83;21254;-76
2022/08/23 10:23:25;;;;;;;34.08;6.30;;;;;;;31.78;49.70;99635.92;1712530;83;21044;-73
2022/08/23 10:25:56;;;;;;;37.15;4.92;;;;;;;31.77;50.82;99639.23;1712553;83;20941;-77
2022/08/23 10:32:00;;;;;;;31.50;5.70;;;;;;;31.66;48.42;99643.93;1712329;83;21525;-73
2022/08/23 10:35:10;;;;;;;26.90;5.03;;;;;;;31.54;49.54;99644.97;1712634;83;21095;-77
2022/08/23 10:38:11;;;;;;;43.65;5.70;;;;;;;31.50;49.87;99644.91;1707986;83;21000;-75
2022/08/23 10:40:54;;;;;;;23.22;4.20;;;;;;;31.46;52.85;99652.95;1708518;83;21001;-75
2022/08/23 10:43:44;;;;;;;17.73;5.12;;;;;;;31.34;51.79;99654.58;1702733;84;37799;-75
2022/08/23 10:46:13;;;;;;;25.88;5.17;;;;;;;31.26;51.69;99649.60;1702667;84;20969;-73
2022/08/23 10:48:53;;;;;;;20.48;4.92;;;;;;;31.17;50.92;99649.69;1701620;84;21403;-75
2022/08/23 10:51:35;;;;;;;20.85;4.47;;;;;;;31.10;50.83;99647.90;1702697;84;20938;-78
2022/08/23 10:54:23;;;;;;;28.23;4.10;;;;;;;31.02;49.81;99645.76;1702916;84;21453;-77
2022/08/23 10:56:52;;;;;;;18.67;5.55;;;;;;;30.86;49.17;99640.42;1697261;83;20962;-78
2022/08/23 10:59:24;;;;;;;35.88;5.75;;;;;;;30.84;51.80;99647.97;1680771;84;20941;-75
2022/08/23 11:02:30;;;;;;;16.67;4.15;;;;;;;30.78;48.68;99644.71;1717002;83;20858;-77
2022/08/23 11:05:26;;;;;;;20.33;4.07;;;;;;;30.70;48.84;99649.86;1700104;84;20953;-76
2022/08/23 11:08:03;;;;;;;23.77;4.47;;;;;;;30.62;50.19;99647.89;1702722;84;21442;-76
2022/08/23 11:10:46;;;;;;;20.10;3.92;;;;;;;30.57;50.87;99647.05;1702677;83;20934;-78
2022/08/23 11:13:23;;;;;;;20.80;3.65;;;;;;;30.51;49.60;99653.11;1702664;84;21053;-77
2022/08/23 11:16:14;;;;;;;22.70;4.12;;;;;;;30.45;51.36;99654.33;1702925;84;21067;-78
2022/08/23 11:18:54;;;;;;;27.80;3.95;;;;;;;30.39;51.50;99644.15;1702635;84;20933;-77
2022/08/23 11:21:43;;;;;;;19.17;3.90;;;;;;;30.42;50.96;99646.08;1698537;84;20981;-72
2022/08/23 11:24:21;;;;;;;19.17;3.65;;;;;;;30.37;51.52;99645.22;1702933;83;21414;-72
2022/08/23 11:26:54;;;;;;;18.82;3.72;;;;;;;30.33;52.04;99647.40;1702988;84;21040;-72
2022/08/23 11:29:27;;;;;;;13.98;2.80;;;;;;;30.35;51.42;99647.75;1702958;83;20984;-74
2022/08/23 11:32:05;;;;;;;15.85;3.27;;;;;;;30.35;52.05;99644.26;1700662;83;21521;-76
2022/08/23 11:34:49;;;;;;;9.38;2.92;;;;;;;30.33;50.51;99645.33;1720953;83;20937;-73
2022/08/23 11:37:22;;;;;;;25.00;5.65;;;;;;;30.33;49.72;99639.65;1692220;84;21023;-76
2022/08/23 11:40:03;;;;;;;18.12;4.62;;;;;;;30.32;49.44;99645.17;1700765;84;20985;-73
2022/08/23 11:42:42;;;;;;;19.87;3.95;;;;;;;30.30;48.60;99643.41;1700835;84;21809;-77
2022/08/23 11:45:42;;;;;;;17.62;3.50;;;;;;;30.32;48.74;99640.91;1700403;83;21037;-75
2022/08/23 11:48:20;;;;;;;15.48;3.90;;;;;;;30.36;49.43;99644.45;1678563;84;21478;-74
2022/08/23 11:51:05;;;;;;;12.75;2.55;;;;;;;30.44;51.19;99638.52;1700559;84;20954;-71
2022/08/23 11:54:07;;;;;;;15.90;3.10;;;;;;;30.56;52.86;99632.03;1700673;84;20843;-75
2022/08/23 11:56:57;;;;;;;16.20;3.27;;;;;;;30.75;53.80;99637.91;1700302;84;21744;-76
2022/08/23 12:00:09;;;;;;;12.40;2.70;;;;;;;31.06;53.53;99629.38;1694275;84;21021;-73
2022/08/23 12:02:59;;;;;;;15.55;3.00;;;;;;;31.27;52.20;99630.64;1700518;84;20902;-77
2022/08/23 12:05:57;;;;;;;14.90;2.80;;;;;;;31.54;48.21;99625.05;1696719;84;20978;-77
2022/08/23 12:08:34;;;;;;;15.28;2.58;;;;;;;31.79;46.13;99622.48;1700550;84;20950;-74
2022/08/23 12:11:08;;;;;;;12.53;2.08;;;;;;;31.99;41.88;99609.33;1694101;84;21055;-75
2022/08/23 12:13:58;;;;;;;19.85;3.65;;;;;;;32.23;41.65;99623.03;1700577;83;20942;-72